Coeur d Alene, Idaho
Current Conditions -  °F | °C
As of 2:35 AM on Sunday 26 Oct 2014 (Local Time) from KCOE Reporting Station
Scattered Clouds Scattered Clouds  
Wind Chill: 40°   Ceiling: Unl
Heat Index: 48°   Visibility: 10mi
Dew Point: 36°   Wind: 26mph
Humidity: 62%   Direction: 200°SSW
Pressure: 29.74"   Gusts: 32mph
Location:  47.7269°N, 116.787°W
Report Text: KCOE 260935Z AUTO 20023G28KT 10SM SCT038 09/02 A2974 RMK AO1
Loading
Personal Weather Stations






























Interactive Weather Map
Tropical Storm Tracking
New forecast layout! Learn more

10-Day Weather Forecast

Advertisements
Track Severe Weather on mobile